createdAt,value
2019-04-26T00:01:40.291Z,80.36
2019-04-26T00:04:10.281Z,80.75
2019-04-26T00:06:39.669Z,81.12
2019-04-26T00:09:24.453Z,80.58
2019-04-26T00:12:07.043Z,80.83
2019-04-26T00:14:53.033Z,80.54
2019-04-26T00:17:24.167Z,80.75
2019-04-26T00:19:53.677Z,81.00
2019-04-26T00:22:23.399Z,80.59
2019-04-26T00:24:52.693Z,81.04
2019-04-26T00:27:21.993Z,80.58
2019-04-26T00:29:51.174Z,79.93
2019-04-26T00:32:21.377Z,79.68
2019-04-26T00:34:50.654Z,79.05
2019-04-26T00:37:20.219Z,78.70
2019-04-26T00:39:49.529Z,78.58
2019-04-26T00:42:19.023Z,79.58
2019-04-26T00:44:48.501Z,79.71
2019-04-26T00:47:19.566Z,81.03
2019-04-26T00:49:49.733Z,81.04
2019-04-26T00:52:19.524Z,81.19
2019-04-26T00:54:49.224Z,81.39
2019-04-26T00:57:20.208Z,81.17
2019-04-26T00:59:50.302Z,81.20
2019-04-26T01:02:25.189Z,80.97
2019-04-26T01:04:54.422Z,81.06
2019-04-26T01:07:23.713Z,81.07
2019-04-26T01:09:52.969Z,80.56
2019-04-26T01:12:22.207Z,80.82
2019-04-26T01:14:51.430Z,81.54
2019-04-26T01:17:20.698Z,81.54
2019-04-26T01:19:51.245Z,81.48
2019-04-26T01:22:23.515Z,81.56
2019-04-26T01:24:55.107Z,81.68
2019-04-26T01:27:27.791Z,82.16
2019-04-26T01:30:00.130Z,81.78
2019-04-26T01:32:31.681Z,81.10
2019-04-26T01:35:01.069Z,81.95
2019-04-26T01:37:31.933Z,82.73
2019-04-26T01:40:05.717Z,82.83
2019-04-26T01:42:43.567Z,82.91
2019-04-26T01:45:32.138Z,82.75
2019-04-26T01:48:04.492Z,82.97
2019-04-26T01:50:35.475Z,83.22
2019-04-26T01:53:05.959Z,82.98
2019-04-26T01:55:35.235Z,83.27
2019-04-26T01:58:06.558Z,82.96
2019-04-26T02:00:40.503Z,83.26
2019-04-26T02:03:17.609Z,83.35
2019-04-26T02:05:49.121Z,84.01
2019-04-26T02:08:18.565Z,83.78
2019-04-26T02:10:47.962Z,83.54
2019-04-26T02:13:17.553Z,83.29
2019-04-26T02:15:46.999Z,83.23
2019-04-26T02:18:16.235Z,83.26
2019-04-26T02:20:52.897Z,82.78
2019-04-26T02:23:26.601Z,83.18
2019-04-26T02:25:55.797Z,83.35
2019-04-26T02:28:26.645Z,83.83
2019-04-26T02:30:56.049Z,84.26
2019-04-26T02:33:27.489Z,84.13
2019-04-26T02:35:56.400Z,83.68
2019-04-26T02:38:27.890Z,83.43
2019-04-26T02:40:56.931Z,83.43
2019-04-26T02:43:28.619Z,83.02
2019-04-26T02:46:00.456Z,82.67
2019-04-26T02:48:35.942Z,82.25
2019-04-26T02:51:08.370Z,82.68
2019-04-26T02:53:55.767Z,82.83
2019-04-26T02:56:43.115Z,82.96
2019-04-26T02:59:15.382Z,82.94
2019-04-26T03:01:45.107Z,83.78
2019-04-26T03:04:14.720Z,83.78
2019-04-26T03:07:02.417Z,83.50
2019-04-26T03:09:17.870Z,84.00
2019-04-26T03:11:59.210Z,83.82
2019-04-26T03:14:31.230Z,84.52
2019-04-26T03:17:07.836Z,84.84
2019-04-26T03:19:44.547Z,84.27
2019-04-26T03:22:22.865Z,84.32
2019-04-26T03:24:56.226Z,83.74
2019-04-26T03:27:35.739Z,83.78
2019-04-26T03:30:20.970Z,83.76
2019-04-26T03:33:04.448Z,84.24
2019-04-26T03:36:02.686Z,84.24
2019-04-26T03:38:51.069Z,84.61
2019-04-26T03:41:35.119Z,84.44
2019-04-26T03:44:10.243Z,84.44
2019-04-26T03:46:43.661Z,84.66
2019-04-26T03:49:42.042Z,84.24
2019-04-26T03:52:23.332Z,84.09
2019-04-26T03:54:58.544Z,84.00
2019-04-26T03:57:56.424Z,84.15
2019-04-26T04:00:30.007Z,84.27
2019-04-26T04:03:09.832Z,84.13
2019-04-26T04:05:49.422Z,84.13
2019-04-26T04:08:21.701Z,83.96
2019-04-26T04:10:56.809Z,83.99
2019-04-26T04:13:44.423Z,84.82
2019-04-26T04:16:32.002Z,84.99
2019-04-26T04:19:21.956Z,85.35
2019-04-26T04:22:06.163Z,86.29
2019-04-26T04:24:39.723Z,87.03
2019-04-26T04:27:15.479Z,87.03
2019-04-26T04:29:55.654Z,87.23
2019-04-26T04:32:51.994Z,87.32
2019-04-26T04:35:24.345Z,86.93
2019-04-26T04:38:09.304Z,87.11
2019-04-26T04:40:49.232Z,86.70
2019-04-26T04:43:34.754Z,86.67
2019-04-26T04:46:08.899Z,86.85
2019-04-26T04:48:47.056Z,86.85
2019-04-26T04:51:46.229Z,86.50
2019-04-26T04:54:42.693Z,86.11
2019-04-26T04:57:15.096Z,86.31
2019-04-26T04:59:52.978Z,85.77
2019-04-26T05:02:50.798Z,86.29
2019-04-26T05:06:07.718Z,86.29
2019-04-26T05:08:59.653Z,86.64
2019-04-26T05:11:34.455Z,86.67
2019-04-26T05:14:26.073Z,86.80
2019-04-26T05:17:34.807Z,86.18
2019-04-26T05:20:18.681Z,86.44
2019-04-26T05:23:23.892Z,85.67
2019-04-26T05:26:17.393Z,84.90
2019-04-26T05:29:03.100Z,84.97
2019-04-26T05:31:54.299Z,84.97
2019-04-26T05:34:30.972Z,84.38
2019-04-26T05:37:19.597Z,84.55
2019-04-26T05:40:00.951Z,84.62
2019-04-26T05:43:03.572Z,84.71
2019-04-26T05:45:49.997Z,86.09
2019-04-26T05:48:51.924Z,86.09
2019-04-26T05:51:53.584Z,86.93
2019-04-26T05:54:52.235Z,86.53
2019-04-26T05:57:40.701Z,84.72
2019-04-26T06:00:26.278Z,84.72
2019-04-26T06:03:12.062Z,84.78
2019-04-26T06:06:12.413Z,85.38
2019-04-26T06:09:01.693Z,85.55
2019-04-26T06:11:44.897Z,84.59
2019-04-26T06:14:39.325Z,84.59
2019-04-26T06:17:28.144Z,84.00
2019-04-26T06:20:08.086Z,83.75
2019-04-26T06:23:01.858Z,83.56
2019-04-26T06:28:53.041Z,83.49
2019-04-26T06:31:31.390Z,82.80
2019-04-26T06:34:12.801Z,82.30
2019-04-26T06:36:53.249Z,82.70
2019-04-26T06:39:53.407Z,82.75
2019-04-26T06:42:54.767Z,81.92
2019-04-26T06:45:34.425Z,81.12
2019-04-26T06:48:40.407Z,80.98
2019-04-26T06:51:39.013Z,81.53
2019-04-26T06:54:14.810Z,81.10
2019-04-26T06:57:20.341Z,80.77
2019-04-26T07:00:18.329Z,80.06
2019-04-26T07:02:59.169Z,80.23
2019-04-26T07:05:31.455Z,79.11
2019-04-26T07:08:15.395Z,78.50
2019-04-26T07:11:03.371Z,77.59
2019-04-26T07:13:56.677Z,76.79
2019-04-26T07:16:29.175Z,76.46
2019-04-26T07:19:24.773Z,75.97
2019-04-26T07:22:16.525Z,75.97
2019-04-26T07:25:26.513Z,75.23
2019-04-26T07:28:06.479Z,75.23
2019-04-26T07:30:51.293Z,75.09
2019-04-26T07:33:39.640Z,74.56
2019-04-26T07:36:29.841Z,74.85
2019-04-26T07:39:26.917Z,75.59
2019-04-26T07:42:22.465Z,75.40
2019-04-26T07:45:05.563Z,75.40
2019-04-26T07:47:43.357Z,77.25
2019-04-26T07:50:36.177Z,77.91
2019-04-26T07:53:20.037Z,77.66
2019-04-26T07:55:57.793Z,76.00
2019-04-26T07:58:53.762Z,75.04
2019-04-26T08:01:51.631Z,74.39
2019-04-26T08:04:29.588Z,73.73
2019-04-26T08:07:10.792Z,73.46
2019-04-26T08:09:46.006Z,72.68
2019-04-26T08:12:17.099Z,71.45
2019-04-26T08:14:56.045Z,70.86
2019-04-26T08:17:42.006Z,69.81
2019-04-26T08:20:21.452Z,70.06
2019-04-26T08:22:53.797Z,70.32
2019-04-26T08:25:25.493Z,70.39
2019-04-26T08:27:58.050Z,70.69
2019-04-26T08:30:50.283Z,70.48
2019-04-26T08:33:27.063Z,71.05
2019-04-26T08:35:59.641Z,71.09
2019-04-26T08:38:29.890Z,70.81
2019-04-26T08:41:00.210Z,70.77
2019-04-26T08:43:45.707Z,70.01
2019-04-26T08:46:36.269Z,69.91
2019-04-26T08:49:13.119Z,68.78
2019-04-26T08:51:45.014Z,68.37
2019-04-26T08:54:20.022Z,68.28
2019-04-26T08:56:52.315Z,69.51
2019-04-26T08:59:30.372Z,69.56
2019-04-26T09:02:03.615Z,69.54
2019-04-26T09:04:43.228Z,69.03
2019-04-26T09:07:17.546Z,68.13
2019-04-26T09:09:57.099Z,67.16
2019-04-26T09:12:23.957Z,66.80
2019-04-26T09:14:56.018Z,67.34
2019-04-26T09:17:27.836Z,67.96
2019-04-26T09:19:58.088Z,68.27
2019-04-26T09:22:31.852Z,68.09
2019-04-26T09:25:03.667Z,67.26
2019-04-26T09:27:34.503Z,67.38
2019-04-26T09:30:10.153Z,67.81
2019-04-26T09:32:43.851Z,67.01
2019-04-26T09:35:15.234Z,65.89
2019-04-26T09:37:44.306Z,66.62
2019-04-26T09:40:21.040Z,66.80
2019-04-26T09:42:52.630Z,66.33
2019-04-26T09:45:23.573Z,66.08
2019-04-26T09:48:00.145Z,66.16
2019-04-26T09:50:45.944Z,67.18
2019-04-26T09:53:15.586Z,65.74
2019-04-26T09:55:44.804Z,64.79
2019-04-26T09:58:14.038Z,65.85
2019-04-26T10:00:44.189Z,66.67
2019-04-26T10:03:14.678Z,66.31
2019-04-26T10:05:43.887Z,64.50
2019-04-26T10:08:14.523Z,64.94
2019-04-26T10:10:43.917Z,63.96
2019-04-26T10:13:23.970Z,64.56
2019-04-26T10:15:58.054Z,64.36
2019-04-26T10:18:26.065Z,64.34
2019-04-26T10:20:55.297Z,63.71
2019-04-26T10:23:24.556Z,62.76
2019-04-26T10:25:53.752Z,61.48
2019-04-26T10:28:23.042Z,61.78
2019-04-26T10:30:52.375Z,62.23
2019-04-26T10:33:21.573Z,61.47
2019-04-26T10:35:52.459Z,61.12
2019-04-26T10:38:23.709Z,61.76
2019-04-26T10:40:52.877Z,61.63
2019-04-26T10:43:22.447Z,60.83
2019-04-26T10:45:53.995Z,60.31
2019-04-26T10:48:23.382Z,60.14
2019-04-26T10:50:52.702Z,59.66
2019-04-26T10:53:35.518Z,61.04
2019-04-26T10:56:24.169Z,60.71
2019-04-26T10:59:06.128Z,60.30
2019-04-26T11:01:36.145Z,60.55
2019-04-26T11:04:05.393Z,59.61
2019-04-26T11:06:34.690Z,58.04
2019-04-26T11:09:06.001Z,58.29
2019-04-26T11:11:36.262Z,58.26
2019-04-26T11:14:05.643Z,58.57
2019-04-26T11:16:37.206Z,59.38
2019-04-26T11:19:06.282Z,59.00
2019-04-26T11:21:35.512Z,57.92
2019-04-26T11:24:04.812Z,58.68
2019-04-26T11:26:34.836Z,58.05
2019-04-26T11:29:05.445Z,58.01
2019-04-26T11:31:34.664Z,57.51
2019-04-26T11:34:05.405Z,54.92
2019-04-26T11:36:37.685Z,54.97
2019-04-26T11:39:09.514Z,53.93
2019-04-26T11:41:39.122Z,55.37
2019-04-26T11:44:08.489Z,56.40
2019-04-26T11:46:44.578Z,56.19
2019-04-26T11:49:15.607Z,55.90
2019-04-26T11:51:44.922Z,55.72
2019-04-26T11:54:16.907Z,55.36
2019-04-26T11:56:45.144Z,54.51
2019-04-26T11:59:14.400Z,54.86
2019-04-26T12:01:43.723Z,54.73
2019-04-26T12:04:17.074Z,54.91
2019-04-26T12:06:47.947Z,54.24
2019-04-26T12:09:33.034Z,54.46
2019-04-26T12:12:04.891Z,53.42
2019-04-26T12:14:34.502Z,54.66
2019-04-26T12:17:04.911Z,54.62
2019-04-26T12:19:34.493Z,54.14
2019-04-26T12:22:04.177Z,53.40
2019-04-26T12:24:34.833Z,53.73
2019-04-26T12:27:04.262Z,53.48
2019-04-26T12:29:33.842Z,50.83
2019-04-26T12:32:03.142Z,50.42
2019-04-26T12:34:32.427Z,51.21
2019-04-26T12:37:01.626Z,52.28
2019-04-26T12:39:32.387Z,51.05
2019-04-26T12:42:01.765Z,51.25
2019-04-26T12:44:36.807Z,51.35
2019-04-26T12:47:05.392Z,51.90
2019-04-26T12:49:35.547Z,53.05
2019-04-26T12:52:05.017Z,53.57
2019-04-26T12:54:34.251Z,54.14
2019-04-26T12:57:05.867Z,53.86
2019-04-26T12:59:43.946Z,52.81
2019-04-26T13:02:06.360Z,52.04
2019-04-26T13:04:36.603Z,50.38
2019-04-26T13:07:22.782Z,49.99
2019-04-26T13:09:43.545Z,49.35
2019-04-26T13:12:14.451Z,49.84
2019-04-26T13:14:54.162Z,48.37
2019-04-26T13:17:25.178Z,48.24
2019-04-26T13:19:55.495Z,48.46
2019-04-26T13:22:24.825Z,48.29
2019-04-26T13:24:54.228Z,48.02
2019-04-26T13:27:23.510Z,47.33
2019-04-26T13:30:01.909Z,47.85
2019-04-26T13:32:23.703Z,47.42
2019-04-26T13:34:52.941Z,47.04
2019-04-26T13:37:22.281Z,45.68
2019-04-26T13:39:55.191Z,44.39
2019-04-26T13:42:40.445Z,44.92
2019-04-26T13:45:17.687Z,44.99
2019-04-26T13:47:59.364Z,44.08
2019-04-26T13:50:35.940Z,44.68
2019-04-26T13:53:05.264Z,44.88
2019-04-26T13:55:34.620Z,44.45
2019-04-26T13:58:03.944Z,44.75
2019-04-26T14:00:33.672Z,45.27
2019-04-26T14:03:02.908Z,45.87
2019-04-26T14:05:32.163Z,45.12
2019-04-26T14:08:01.443Z,45.93
2019-04-26T14:10:30.673Z,46.27
2019-04-26T14:12:59.865Z,46.76
2019-04-26T14:15:29.281Z,46.55
2019-04-26T14:18:00.275Z,47.04
2019-04-26T14:20:47.239Z,47.58
2019-04-26T14:23:34.254Z,48.15
2019-04-26T14:26:11.032Z,48.51
2019-04-26T14:28:42.014Z,48.79
2019-04-26T14:31:12.375Z,48.76
2019-04-26T14:33:42.291Z,49.62
2019-04-26T14:36:17.919Z,49.38
2019-04-26T14:38:42.487Z,49.98
2019-04-26T14:41:13.465Z,49.92
2019-04-26T14:43:42.705Z,49.32
2019-04-26T14:46:14.679Z,49.60
2019-04-26T14:48:44.623Z,49.51
2019-04-26T14:51:16.888Z,49.97
2019-04-26T14:53:45.926Z,49.53
2019-04-26T14:56:16.239Z,49.66
2019-04-26T14:58:45.549Z,49.19
2019-04-26T15:01:16.513Z,48.97
2019-04-26T15:03:57.101Z,48.66
2019-04-26T15:06:28.193Z,49.14
2019-04-26T15:08:57.470Z,49.71
2019-04-26T15:11:26.690Z,49.67
2019-04-26T15:13:55.922Z,49.46
2019-04-26T15:16:25.229Z,49.12
2019-04-26T15:18:54.495Z,48.99
2019-04-26T15:21:27.379Z,48.98
2019-04-26T15:23:55.382Z,48.56
2019-04-26T15:26:29.794Z,48.67
2019-04-26T15:28:56.713Z,49.24
2019-04-26T15:31:26.054Z,50.07
2019-04-26T15:33:55.213Z,50.43
2019-04-26T15:36:24.494Z,50.44
2019-04-26T15:38:54.015Z,50.72
2019-04-26T15:41:33.666Z,51.03
2019-04-26T15:44:13.723Z,51.13
2019-04-26T15:47:03.337Z,50.43
2019-04-26T15:49:37.234Z,50.51
2019-04-26T15:52:06.571Z,50.38
2019-04-26T15:54:37.331Z,49.72
2019-04-26T15:57:06.792Z,49.72
2019-04-26T15:59:36.165Z,49.69
2019-04-26T16:02:05.608Z,49.43
2019-04-26T16:04:34.957Z,48.64
2019-04-26T16:07:04.403Z,47.83
2019-04-26T16:09:33.728Z,47.66
2019-04-26T16:12:03.641Z,46.40
2019-04-26T16:14:36.633Z,46.60
2019-04-26T16:17:06.581Z,45.19
2019-04-26T16:19:35.316Z,45.49
2019-04-26T16:22:04.952Z,45.59
2019-04-26T16:24:34.639Z,45.37
2019-04-26T16:27:04.007Z,46.08
2019-04-26T16:29:37.559Z,46.44
2019-04-26T16:32:08.638Z,45.80
2019-04-26T16:34:47.571Z,45.77
2019-04-26T16:37:14.979Z,45.60
2019-04-26T16:39:48.411Z,46.02
2019-04-26T16:42:15.060Z,46.08
2019-04-26T16:44:45.072Z,46.49
2019-04-26T16:47:14.499Z,46.46
2019-04-26T16:49:46.455Z,47.10
2019-04-26T16:52:14.714Z,47.07
2019-04-26T16:54:46.058Z,47.34
2019-04-26T16:57:15.330Z,47.64
2019-04-26T16:59:49.189Z,48.21
2019-04-26T17:02:20.946Z,47.91
2019-04-26T17:04:46.822Z,48.10
2019-04-26T17:07:21.881Z,47.78
2019-04-26T17:09:58.963Z,48.11
2019-04-26T17:12:19.878Z,48.04
2019-04-26T17:14:49.463Z,47.54
2019-04-26T17:17:19.115Z,46.83
2019-04-26T17:19:49.933Z,46.94
2019-04-26T17:22:23.624Z,47.25
2019-04-26T17:25:00.107Z,46.70
2019-04-26T17:27:29.380Z,46.63
2019-04-26T17:29:58.601Z,46.72
2019-04-26T17:32:27.998Z,46.81
2019-04-26T17:34:59.489Z,46.70
2019-04-26T17:37:34.213Z,46.71
2019-04-26T17:40:03.604Z,47.18
2019-04-26T17:42:36.387Z,47.50
2019-04-26T17:45:07.043Z,47.89
2019-04-26T17:47:39.888Z,48.78
2019-04-26T17:50:07.841Z,49.96
2019-04-26T17:52:37.788Z,50.70
2019-04-26T17:55:07.728Z,51.24
2019-04-26T17:57:43.533Z,50.94
2019-04-26T18:00:13.755Z,51.06
2019-04-26T18:02:47.707Z,51.29
2019-04-26T18:05:13.012Z,51.58
2019-04-26T18:07:50.257Z,51.08
2019-04-26T18:10:13.820Z,50.84
2019-04-26T18:12:47.157Z,50.89
2019-04-26T18:15:19.271Z,50.65
2019-04-26T18:18:09.660Z,50.74
2019-04-26T18:20:50.555Z,49.81
2019-04-26T18:23:21.423Z,50.14
2019-04-26T18:25:50.673Z,50.32
2019-04-26T18:28:19.977Z,50.46
2019-04-26T18:30:49.192Z,49.56
2019-04-26T18:33:22.465Z,48.88
2019-04-26T18:35:55.862Z,48.71
2019-04-26T18:38:20.882Z,48.16
2019-04-26T18:41:01.123Z,48.69
2019-04-26T18:43:24.252Z,48.32
2019-04-26T18:45:54.429Z,48.64
2019-04-26T18:48:24.117Z,48.63
2019-04-26T18:50:55.284Z,48.79
2019-04-26T18:53:39.455Z,48.99
2019-04-26T18:56:07.754Z,49.26
2019-04-26T18:58:38.567Z,49.17
2019-04-26T19:01:10.389Z,49.69
2019-04-26T19:03:39.597Z,49.69
2019-04-26T19:06:08.903Z,49.58
2019-04-26T19:08:47.710Z,49.69
2019-04-26T19:11:11.719Z,49.52
2019-04-26T19:13:56.335Z,49.96
2019-04-26T19:16:26.692Z,50.08
2019-04-26T19:18:59.987Z,50.63
2019-04-26T19:21:32.349Z,50.60
2019-04-26T19:24:07.357Z,51.24
2019-04-26T19:26:34.964Z,51.14
2019-04-26T19:29:15.534Z,51.44
2019-04-26T19:31:35.879Z,51.37
2019-04-26T19:34:05.235Z,51.64
2019-04-26T19:36:35.663Z,51.83
2019-04-26T19:39:06.925Z,52.08
2019-04-26T19:41:36.179Z,52.19
2019-04-26T19:44:05.766Z,52.49
2019-04-26T19:46:36.707Z,52.88
2019-04-26T19:49:25.757Z,53.21
2019-04-26T19:52:03.888Z,53.82
2019-04-26T19:54:43.972Z,54.50
2019-04-26T19:57:24.108Z,54.56
2019-04-26T19:59:53.440Z,54.71
2019-04-26T20:02:26.832Z,54.67
2019-04-26T20:04:53.675Z,54.54
2019-04-26T20:07:24.156Z,55.03
2019-04-26T20:09:56.265Z,55.95
2019-04-26T20:12:25.342Z,56.30
2019-04-26T20:14:58.432Z,56.60
2019-04-26T20:17:25.524Z,57.58
2019-04-26T20:19:55.631Z,57.82
2019-04-26T20:22:28.444Z,57.75
2019-04-26T20:24:57.563Z,58.02
2019-04-26T20:27:28.025Z,57.85
2019-04-26T20:29:58.441Z,57.93
2019-04-26T20:32:29.626Z,57.91
2019-04-26T20:35:00.520Z,58.04
2019-04-26T20:37:29.816Z,57.93
2019-04-26T20:40:16.186Z,58.65
2019-04-26T20:42:31.553Z,58.82
2019-04-26T20:45:04.479Z,59.17
2019-04-26T20:47:32.111Z,59.68
2019-04-26T20:50:03.022Z,59.81
2019-04-26T20:52:32.318Z,59.98
2019-04-26T20:55:01.682Z,59.57
2019-04-26T20:57:34.374Z,60.08
2019-04-26T21:00:05.336Z,60.12
2019-04-26T21:02:32.894Z,60.53
2019-04-26T21:05:05.907Z,60.53
2019-04-26T21:07:33.092Z,60.74
2019-04-26T21:10:02.468Z,61.01
2019-04-26T21:12:31.699Z,61.05
2019-04-26T21:15:02.432Z,60.77
2019-04-26T21:17:32.321Z,61.40
2019-04-26T21:20:02.292Z,61.85
2019-04-26T21:22:31.827Z,62.15
2019-04-26T21:25:05.596Z,62.27
2019-04-26T21:27:36.506Z,62.50
2019-04-26T21:30:24.139Z,62.57
2019-04-26T21:32:59.346Z,62.62
2019-04-26T21:35:46.531Z,62.67
2019-04-26T21:38:29.675Z,63.71
2019-04-26T21:41:15.042Z,63.84
2019-04-26T21:43:45.040Z,63.88
2019-04-26T21:46:19.008Z,63.44
2019-04-26T21:48:45.213Z,62.66
2019-04-26T21:51:16.065Z,62.37
2019-04-26T21:53:45.496Z,62.49
2019-04-26T21:56:14.969Z,62.17
2019-04-26T21:58:46.177Z,62.01
2019-04-26T22:01:19.281Z,61.83
2019-04-26T22:03:54.469Z,61.80
2019-04-26T22:06:23.996Z,62.54
2019-04-26T22:08:56.622Z,63.21
2019-04-26T22:11:23.715Z,63.87
2019-04-26T22:14:00.286Z,63.65
2019-04-26T22:16:40.023Z,63.75
2019-04-26T22:19:14.586Z,63.62
2019-04-26T22:21:52.729Z,64.51
2019-04-26T22:24:35.668Z,65.20
2019-04-26T22:27:05.014Z,64.91
2019-04-26T22:29:34.191Z,64.89
2019-04-26T22:32:03.775Z,64.68
2019-04-26T22:34:33.100Z,64.71
2019-04-26T22:37:11.103Z,64.74
2019-04-26T22:39:39.905Z,65.14
2019-04-26T22:42:04.538Z,65.32
2019-04-26T22:44:37.970Z,65.07
2019-04-26T22:47:08.813Z,64.93
2019-04-26T22:49:41.899Z,65.12
2019-04-26T22:52:11.232Z,65.48
2019-04-26T22:54:42.935Z,66.00
2019-04-26T22:57:13.028Z,66.06
2019-04-26T22:59:43.242Z,67.07
2019-04-26T23:02:18.396Z,66.66
2019-04-26T23:04:45.745Z,67.29
2019-04-26T23:07:21.101Z,67.26
2019-04-26T23:09:52.046Z,67.55
2019-04-26T23:12:27.924Z,67.72
2019-04-26T23:15:10.679Z,68.18
2019-04-26T23:17:59.484Z,67.64
2019-04-26T23:20:37.604Z,67.40
2019-04-26T23:23:08.342Z,67.90
2019-04-26T23:25:35.594Z,68.16
2019-04-26T23:28:04.811Z,69.62
2019-04-26T23:30:34.020Z,69.73
2019-04-26T23:33:03.233Z,69.80
2019-04-26T23:35:37.502Z,69.32
2019-04-26T23:38:05.234Z,69.09
2019-04-26T23:40:34.265Z,69.07
2019-04-26T23:43:03.475Z,69.31
2019-04-26T23:45:33.301Z,69.34
2019-04-26T23:48:03.535Z,69.65
2019-04-26T23:50:34.086Z,70.17
2019-04-26T23:53:03.426Z,69.76
2019-04-26T23:55:33.809Z,70.39
2019-04-26T23:58:06.471Z,71.04
